Time;durP1;ratioP1;P1;durP2;ratioP2;P2;SDS_P1;SDS_P2;PMS_P1;PMS_P2;Temp;Humidity;BMP_temperature;BMP_pressure;BME280_temperature;BME280_humidity;BME280_pressure;Samples;Min_cycle;Max_cycle;Signal;HPM_P1;HPM_P2
2023/02/17 00:01:22;;;;;;;23.45;15.77;;;4.50;99.90;;;;;;5061307;28;20117;-74
2023/02/17 00:03:50;;;;;;;31.83;18.15;;;4.50;99.90;;;;;;5064053;28;20127;-68
2023/02/17 00:06:19;;;;;;;29.05;16.15;;;4.50;99.90;;;;;;5059309;28;20110;-70
2023/02/17 00:08:47;;;;;;;27.80;16.30;;;4.50;99.90;;;;;;5062157;28;20086;-64
2023/02/17 00:11:14;;;;;;;25.83;14.77;;;4.50;99.90;;;;;;5063737;28;20041;-66
2023/02/17 00:13:41;;;;;;;30.52;17.50;;;4.60;99.90;;;;;;5064212;28;20453;-67
2023/02/17 00:16:24;;;;;;;24.10;15.35;;;4.60;99.90;;;;;;5061134;28;20044;-69
2023/02/17 00:18:54;;;;;;;27.00;14.05;;;4.60;99.90;;;;;;5059428;28;20466;-69
2023/02/17 00:21:23;;;;;;;25.20;14.27;;;4.60;99.90;;;;;;5061350;28;21516;-63
2023/02/17 00:23:51;;;;;;;27.80;15.50;;;4.70;99.90;;;;;;5048920;28;20055;-65
2023/02/17 00:26:20;;;;;;;24.58;13.40;;;4.70;99.90;;;;;;5061771;28;20127;-65
2023/02/17 00:28:47;;;;;;;18.45;13.60;;;4.70;99.90;;;;;;5063493;28;20126;-63
2023/02/17 00:31:18;;;;;;;24.35;13.02;;;4.70;99.90;;;;;;5067607;28;20050;-69
2023/02/17 00:33:45;;;;;;;;;;;4.70;99.90;;;;;;5055194;28;20048;-64
2023/02/17 00:36:18;;;;;;;23.10;13.60;;;4.70;99.90;;;;;;5064733;28;19928;-70
2023/02/17 00:38:49;;;;;;;23.35;13.40;;;4.70;99.90;;;;;;5052069;28;20125;-63
2023/02/17 00:41:17;;;;;;;24.83;12.95;;;4.70;99.90;;;;;;5068095;28;20064;-63
2023/02/17 00:43:44;;;;;;;26.73;16.58;;;4.70;99.90;;;;;;5060594;28;20183;-68
2023/02/17 00:46:10;;;;;;;20.55;13.13;;;4.70;99.90;;;;;;5065704;28;20483;-65
2023/02/17 00:48:37;;;;;;;23.92;13.07;;;4.70;99.90;;;;;;5065160;28;20048;-68
2023/02/17 00:51:05;;;;;;;21.20;13.27;;;4.80;99.90;;;;;;5053371;28;20044;-68
2023/02/17 00:53:33;;;;;;;22.65;12.05;;;4.70;99.90;;;;;;5066146;28;20051;-66
2023/02/17 00:56:00;;;;;;;24.95;13.77;;;4.70;99.90;;;;;;5065927;28;20131;-65
2023/02/17 00:58:27;;;;;;;22.85;13.82;;;4.70;99.90;;;;;;5065167;28;20135;-72
2023/02/17 01:00:56;;;;;;;22.60;12.95;;;4.70;99.90;;;;;;5067765;28;20048;-65
2023/02/17 01:03:24;;;;;;;25.55;12.43;;;4.70;99.90;;;;;;5048312;28;20098;-66
2023/02/17 01:05:53;;;;;;;20.83;13.75;;;4.60;99.90;;;;;;5067601;28;20556;-67
2023/02/17 01:08:22;;;;;;;22.30;12.25;;;4.60;99.90;;;;;;5063323;28;20056;-68
2023/02/17 01:10:50;;;;;;;27.45;14.18;;;4.60;99.90;;;;;;5065565;28;20097;-64
2023/02/17 01:13:18;;;;;;;21.05;11.77;;;4.60;99.90;;;;;;5067823;28;20084;-69
2023/02/17 01:15:50;;;;;;;23.52;14.88;;;4.60;99.90;;;;;;5049301;28;20053;-72
2023/02/17 01:18:20;;;;;;;25.85;15.02;;;4.60;99.90;;;;;;5053861;28;20099;-64
2023/02/17 01:20:49;;;;;;;24.77;14.23;;;4.60;99.90;;;;;;5050219;28;20049;-68
2023/02/17 01:23:16;;;;;;;26.50;14.55;;;4.60;99.90;;;;;;5067405;28;20159;-66
2023/02/17 01:25:45;;;;;;;27.48;15.63;;;4.60;99.90;;;;;;5049279;28;20486;-72
2023/02/17 01:28:19;;;;;;;26.42;14.48;;;4.50;99.90;;;;;;5064635;28;20072;-69
2023/02/17 01:30:46;;;;;;;29.42;15.13;;;4.50;99.90;;;;;;5052629;28;20486;-67
2023/02/17 01:33:14;;;;;;;27.80;13.88;;;4.40;99.90;;;;;;5053555;28;20045;-71
2023/02/17 01:35:41;;;;;;;27.77;15.85;;;4.40;99.90;;;;;;5066690;28;20050;-71
2023/02/17 01:38:08;;;;;;;31.10;16.98;;;4.40;99.90;;;;;;5063852;28;20040;-65
2023/02/17 01:40:35;;;;;;;25.10;15.45;;;4.40;99.90;;;;;;5062702;28;20048;-67
2023/02/17 01:43:02;;;;;;;33.55;16.35;;;4.40;99.90;;;;;;5061684;28;20441;-65
2023/02/17 01:45:35;;;;;;;28.88;16.00;;;4.40;99.90;;;;;;5063313;28;20176;-65
2023/02/17 01:48:13;;;;;;;27.90;16.70;;;4.40;99.90;;;;;;5064719;28;20119;-65
2023/02/17 01:50:50;;;;;;;32.88;16.73;;;4.40;99.90;;;;;;5054370;28;20052;-67
2023/02/17 01:53:26;;;;;;;25.45;16.83;;;4.40;99.90;;;;;;5065755;28;20052;-65
2023/02/17 01:55:54;;;;;;;28.23;17.05;;;4.40;99.90;;;;;;5065767;28;20044;-65
2023/02/17 01:58:23;;;;;;;32.63;19.05;;;4.40;99.90;;;;;;5050464;28;20139;-72
2023/02/17 02:00:52;;;;;;;31.20;17.88;;;4.40;99.90;;;;;;5056230;28;20123;-68
2023/02/17 02:03:19;;;;;;;37.72;17.17;;;4.40;99.90;;;;;;5055551;28;20048;-64
2023/02/17 02:05:46;;;;;;;28.73;16.45;;;4.30;99.90;;;;;;5066505;28;20083;-67
2023/02/17 02:08:14;;;;;;;31.00;18.90;;;4.30;99.90;;;;;;5063402;28;20078;-68
2023/02/17 02:10:41;;;;;;;36.13;18.23;;;4.30;99.90;;;;;;5062473;28;20064;-64
2023/02/17 02:13:08;;;;;;;33.75;17.42;;;4.30;99.90;;;;;;5050183;28;20048;-72
2023/02/17 02:15:51;;;;;;;33.17;19.10;;;4.30;99.90;;;;;;5064906;28;20132;-68
2023/02/17 02:18:39;;;;;;;30.33;16.67;;;4.30;99.90;;;;;;5063153;28;20075;-71
2023/02/17 02:21:27;;;;;;;32.72;17.65;;;4.30;99.90;;;;;;5063408;28;20056;-66
2023/02/17 02:23:54;;;;;;;30.90;16.15;;;4.30;99.90;;;;;;5069157;28;20185;-66
2023/02/17 02:26:47;;;;;;;34.65;18.02;;;4.30;99.90;;;;;;5048050;28;20109;-65
2023/02/17 02:29:14;;;;;;;30.92;19.10;;;4.40;99.90;;;;;;5063095;28;20474;-65
2023/02/17 02:32:05;;;;;;;30.80;17.70;;;4.40;99.90;;;;;;5047700;28;20402;-68
2023/02/17 02:34:41;;;;;;;35.90;18.00;;;4.40;99.90;;;;;;5063478;28;20048;-65
2023/02/17 02:37:19;;;;;;;37.30;18.20;;;4.40;99.90;;;;;;5060498;28;20384;-71
2023/02/17 02:39:49;;;;;;;27.10;16.08;;;4.40;99.90;;;;;;5046659;28;20052;-65
2023/02/17 02:42:23;;;;;;;28.35;17.27;;;4.40;99.90;;;;;;5046242;28;20048;-68
2023/02/17 02:44:50;;;;;;;31.45;17.23;;;4.40;99.90;;;;;;5036831;28;20044;-65
2023/02/17 02:47:46;;;;;;;36.08;16.05;;;4.40;99.90;;;;;;5064311;28;20044;-66
2023/02/17 02:50:36;;;;;;;37.38;17.77;;;4.40;99.90;;;;;;5059958;28;20456;-68
2023/02/17 02:53:17;;;;;;;30.48;18.38;;;4.50;99.90;;;;;;5062910;28;20072;-65
2023/02/17 02:55:53;;;;;;;35.80;19.25;;;4.50;99.90;;;;;;5058581;28;20089;-67
2023/02/17 02:58:39;;;;;;;30.67;16.10;;;4.50;99.90;;;;;;5044706;28;20044;-70
2023/02/17 03:01:25;;;;;;;29.60;16.42;;;4.50;99.90;;;;;;5061474;28;20058;-65
2023/02/17 03:04:25;;;;;;;24.40;16.38;;;4.50;99.90;;;;;;5057717;28;20053;-68
2023/02/17 03:07:02;;;;;;;29.17;17.20;;;4.40;99.90;;;;;;5058291;28;20053;-68
2023/02/17 03:09:29;;;;;;;32.15;18.83;;;4.40;99.90;;;;;;5051105;28;20061;-65
2023/02/17 03:11:57;;;;;;;37.95;17.80;;;4.40;99.90;;;;;;5045441;28;20053;-67
2023/02/17 03:14:26;;;;;;;30.92;19.85;;;4.40;99.90;;;;;;5048146;28;20482;-65
2023/02/17 03:16:54;;;;;;;26.63;17.92;;;4.40;99.90;;;;;;5048033;28;20053;-66
2023/02/17 03:19:24;;;;;;;30.58;14.75;;;4.40;99.90;;;;;;5051339;28;20045;-68
2023/02/17 03:22:15;;;;;;;30.73;14.68;;;4.40;99.90;;;;;;5045923;28;20119;-69
2023/02/17 03:24:46;;;;;;;31.55;16.67;;;4.30;99.90;;;;;;5062666;28;20080;-68
2023/02/17 03:27:13;;;;;;;30.83;17.85;;;4.30;99.90;;;;;;5065164;28;20047;-73
2023/02/17 03:29:40;;;;;;;31.90;17.50;;;4.30;99.90;;;;;;5049848;28;20080;-64
2023/02/17 03:32:07;;;;;;;34.65;17.25;;;4.30;99.90;;;;;;5060073;28;20123;-71
2023/02/17 03:34:34;;;;;;;27.67;16.15;;;4.30;99.90;;;;;;5059225;28;20507;-66
2023/02/17 03:37:02;;;;;;;35.75;18.23;;;4.30;99.90;;;;;;5063349;28;20049;-67
2023/02/17 03:39:29;;;;;;;35.75;17.38;;;4.30;99.90;;;;;;5064266;28;20045;-66
2023/02/17 03:41:56;;;;;;;26.52;15.80;;;4.20;99.90;;;;;;5065484;28;20137;-65
2023/02/17 03:44:23;;;;;;;33.58;15.82;;;4.20;99.90;;;;;;5059171;28;20123;-65
2023/02/17 03:46:50;;;;;;;27.30;16.05;;;4.20;99.90;;;;;;5063696;28;20064;-64
2023/02/17 03:49:17;;;;;;;29.77;17.67;;;4.20;99.90;;;;;;5061239;28;20136;-69
2023/02/17 03:51:43;;;;;;;29.52;15.60;;;4.20;99.90;;;;;;5064576;28;20059;-67
2023/02/17 03:54:10;;;;;;;29.52;16.70;;;4.20;99.90;;;;;;5062441;28;20045;-66
2023/02/17 03:56:37;;;;;;;28.77;18.25;;;4.20;99.90;;;;;;5061336;28;20049;-67
2023/02/17 03:59:04;;;;;;;30.45;17.25;;;4.20;99.90;;;;;;5065240;28;20048;-64
2023/02/17 04:01:31;;;;;;;28.55;14.90;;;4.20;99.90;;;;;;5062968;28;20045;-63
2023/02/17 04:03:59;;;;;;;26.15;15.60;;;4.20;99.90;;;;;;5059204;28;20506;-73
2023/02/17 04:06:26;;;;;;;21.77;11.80;;;4.20;99.90;;;;;;5059125;28;20107;-66
2023/02/17 04:08:52;;;;;;;30.02;14.18;;;4.20;99.90;;;;;;5065417;28;20064;-63
2023/02/17 04:11:19;;;;;;;24.65;14.77;;;4.20;99.90;;;;;;5063848;28;20045;-67
2023/02/17 04:13:46;;;;;;;30.00;15.18;;;4.20;99.90;;;;;;5059566;28;20501;-62
2023/02/17 04:16:13;;;;;;;25.05;13.38;;;4.20;99.90;;;;;;5061463;28;20044;-63
2023/02/17 04:18:40;;;;;;;24.83;14.73;;;4.10;99.90;;;;;;5063910;28;20083;-67
2023/02/17 04:21:07;;;;;;;30.38;14.35;;;4.10;99.90;;;;;;5060730;28;20090;-63
2023/02/17 04:23:37;;;;;;;32.75;15.10;;;4.10;99.90;;;;;;5060189;28;20044;-64
2023/02/17 04:26:06;;;;;;;23.48;12.27;;;4.10;99.90;;;;;;5062031;28;20045;-67
2023/02/17 04:28:37;;;;;;;25.50;14.18;;;4.10;99.90;;;;;;5062498;28;20044;-64
2023/02/17 04:31:04;;;;;;;25.27;15.25;;;4.00;99.90;;;;;;5061166;28;20048;-64
2023/02/17 04:33:31;;;;;;;30.13;15.07;;;4.00;99.90;;;;;;5062857;28;20052;-64
2023/02/17 04:36:00;;;;;;;27.85;13.85;;;4.00;99.90;;;;;;5062394;28;20045;-66
2023/02/17 04:38:29;;;;;;;21.17;13.82;;;3.90;99.90;;;;;;5051636;28;20048;-65
2023/02/17 04:40:57;;;;;;;33.15;15.27;;;3.90;99.90;;;;;;5063952;28;20045;-64
2023/02/17 04:43:25;;;;;;;29.10;15.07;;;3.90;99.90;;;;;;5062883;28;20054;-66
2023/02/17 04:45:52;;;;;;;26.58;12.80;;;3.80;99.90;;;;;;5063662;28;20434;-65
2023/02/17 04:48:20;;;;;;;29.60;15.55;;;3.80;99.90;;;;;;5059917;28;20072;-63
2023/02/17 04:50:47;;;;;;;31.27;16.15;;;3.80;99.90;;;;;;5064215;28;20498;-66
2023/02/17 04:53:14;;;;;;;24.75;15.00;;;3.70;99.90;;;;;;5061125;28;20048;-63
2023/02/17 04:55:41;;;;;;;26.50;15.48;;;3.70;99.90;;;;;;5062628;28;20127;-63
2023/02/17 04:58:09;;;;;;;31.50;15.88;;;3.70;99.90;;;;;;5065183;28;20129;-67
2023/02/17 05:00:36;;;;;;;34.17;15.48;;;3.60;99.90;;;;;;5063525;28;20045;-63
2023/02/17 05:03:03;;;;;;;30.33;15.35;;;3.60;99.90;;;;;;5062396;28;20091;-66
2023/02/17 05:05:30;;;;;;;34.15;18.10;;;3.60;99.90;;;;;;5060297;28;20072;-63
2023/02/17 05:07:57;;;;;;;26.92;14.93;;;3.60;99.90;;;;;;5055978;28;20133;-65
2023/02/17 05:10:25;;;;;;;27.92;16.23;;;3.60;99.90;;;;;;5060801;28;20044;-63
2023/02/17 05:12:51;;;;;;;24.27;15.60;;;3.50;99.90;;;;;;5062671;28;20121;-72
2023/02/17 05:15:18;;;;;;;25.67;15.88;;;3.50;99.90;;;;;;5061899;28;20041;-66
2023/02/17 05:17:45;;;;;;;31.00;15.55;;;3.50;99.90;;;;;;5065682;28;20056;-64
2023/02/17 05:20:12;;;;;;;28.00;14.85;;;3.40;99.90;;;;;;5064717;28;20058;-66
2023/02/17 05:22:39;;;;;;;31.25;15.93;;;3.40;99.90;;;;;;5065596;28;20045;-64
2023/02/17 05:25:06;;;;;;;28.38;16.13;;;3.40;99.90;;;;;;5060594;28;20056;-63
2023/02/17 05:27:33;;;;;;;27.02;15.48;;;3.40;99.90;;;;;;5064588;28;20057;-67
2023/02/17 05:30:00;;;;;;;26.73;16.05;;;3.40;99.90;;;;;;5063742;28;20072;-63
2023/02/17 05:32:27;;;;;;;34.08;15.98;;;3.40;99.90;;;;;;5064655;28;20132;-65
2023/02/17 05:34:54;;;;;;;27.30;14.80;;;3.40;99.90;;;;;;5066352;28;20395;-70
2023/02/17 05:37:21;;;;;;;30.38;15.80;;;3.40;99.90;;;;;;5060062;28;20716;-66
2023/02/17 05:39:47;;;;;;;31.83;16.27;;;3.40;99.90;;;;;;5067416;28;20044;-65
2023/02/17 05:42:14;;;;;;;25.83;14.27;;;3.40;99.90;;;;;;5063124;28;20036;-68
2023/02/17 05:44:41;;;;;;;26.20;13.65;;;3.30;99.90;;;;;;5066790;28;20737;-64
2023/02/17 05:47:08;;;;;;;26.02;14.90;;;3.40;99.90;;;;;;5066071;28;20110;-68
2023/02/17 05:49:35;;;;;;;23.77;13.30;;;3.40;99.90;;;;;;5066853;28;20051;-70
2023/02/17 05:52:02;;;;;;;32.80;14.60;;;3.40;99.90;;;;;;5063462;28;20041;-64
2023/02/17 05:54:29;;;;;;;28.80;17.45;;;3.40;99.90;;;;;;5065834;28;20500;-63
2023/02/17 05:56:56;;;;;;;26.23;15.35;;;3.40;99.90;;;;;;5064100;28;20062;-69
2023/02/17 05:59:23;;;;;;;32.17;15.98;;;3.40;99.90;;;;;;5063656;28;20044;-65
2023/02/17 06:01:50;;;;;;;25.80;14.00;;;3.40;99.90;;;;;;5065809;28;20050;-67
2023/02/17 06:04:17;;;;;;;23.95;13.90;;;3.40;99.90;;;;;;5064388;28;20648;-70
2023/02/17 06:06:44;;;;;;;24.75;14.38;;;3.40;99.90;;;;;;5064435;28;20052;-68
2023/02/17 06:09:11;;;;;;;24.00;13.05;;;3.50;99.90;;;;;;5064913;28;20059;-69
2023/02/17 06:11:37;;;;;;;28.83;13.82;;;3.40;99.90;;;;;;5067431;28;20413;-68
2023/02/17 06:14:04;;;;;;;22.55;11.07;;;3.40;99.90;;;;;;5063013;28;20052;-63
2023/02/17 06:16:31;;;;;;;21.60;13.10;;;3.40;99.90;;;;;;5062766;28;20039;-64
2023/02/17 06:19:01;;;;;;;27.98;15.40;;;3.40;99.90;;;;;;5066105;28;20098;-65
2023/02/17 06:21:28;;;;;;;29.50;15.65;;;3.40;99.90;;;;;;5058838;28;20049;-65
2023/02/17 06:23:55;;;;;;;52.92;29.58;;;3.50;99.90;;;;;;5069155;28;20612;-69
2023/02/17 06:26:22;;;;;;;23.35;13.18;;;3.50;99.90;;;;;;5060758;28;20048;-65
2023/02/17 06:28:49;;;;;;;21.77;12.85;;;3.50;99.90;;;;;;5067195;28;20064;-65
2023/02/17 06:31:16;;;;;;;16.90;10.30;;;3.50;99.90;;;;;;5064846;28;20043;-64
2023/02/17 06:33:43;;;;;;;25.23;12.15;;;3.50;99.90;;;;;;5052317;28;20568;-69
2023/02/17 06:36:10;;;;;;;22.05;12.20;;;3.50;99.90;;;;;;5061668;28;20033;-64
2023/02/17 06:38:37;;;;;;;21.52;11.85;;;3.50;99.90;;;;;;5068979;28;20048;-63
2023/02/17 06:41:03;;;;;;;28.35;11.40;;;3.60;99.90;;;;;;5066773;28;20055;-66
2023/02/17 06:43:31;;;;;;;21.52;11.52;;;3.60;99.90;;;;;;5063624;28;20044;-65
2023/02/17 06:45:58;;;;;;;21.10;11.82;;;3.60;99.90;;;;;;5064304;28;20415;-68
2023/02/17 06:48:25;;;;;;;25.48;11.93;;;3.60;99.90;;;;;;5061905;28;20048;-63
2023/02/17 06:50:51;;;;;;;22.45;12.95;;;3.60;99.90;;;;;;5064853;28;20041;-65
2023/02/17 06:53:18;;;;;;;24.70;14.00;;;3.60;99.90;;;;;;5068668;28;20478;-67
2023/02/17 06:55:45;;;;;;;23.02;12.88;;;3.70;99.90;;;;;;5063659;28;21647;-68
2023/02/17 06:58:12;;;;;;;19.65;12.32;;;3.70;99.90;;;;;;5063499;28;20624;-71
2023/02/17 07:00:39;;;;;;;24.25;13.50;;;3.70;99.90;;;;;;5062184;28;20055;-64
2023/02/17 07:03:06;;;;;;;24.88;13.93;;;3.70;99.90;;;;;;5059208;28;20040;-63
2023/02/17 07:05:38;;;;;;;21.60;12.75;;;3.70;99.90;;;;;;5063822;28;20044;-67
2023/02/17 07:08:05;;;;;;;25.63;14.30;;;3.70;99.90;;;;;;5060926;28;20071;-64
2023/02/17 07:10:32;;;;;;;28.42;15.55;;;3.70;99.90;;;;;;5050793;28;20036;-70
2023/02/17 07:12:59;;;;;;;24.85;12.95;;;3.70;99.90;;;;;;5068625;28;20074;-65
2023/02/17 07:15:26;;;;;;;23.48;15.10;;;3.70;99.90;;;;;;5067086;28;20045;-68
2023/02/17 07:17:53;;;;;;;23.55;14.82;;;3.80;99.90;;;;;;5032762;28;20040;-73
2023/02/17 07:20:20;;;;;;;25.88;14.88;;;3.80;99.90;;;;;;5063911;28;20127;-64
2023/02/17 07:22:47;;;;;;;25.30;14.98;;;3.80;99.90;;;;;;5064131;28;20068;-64
2023/02/17 07:25:13;;;;;;;24.63;14.07;;;3.90;99.90;;;;;;5062720;28;20497;-70
2023/02/17 07:27:40;;;;;;;26.10;16.00;;;3.90;99.90;;;;;;5068332;28;20139;-65
2023/02/17 07:30:07;;;;;;;26.90;15.80;;;3.90;99.90;;;;;;5063072;28;20036;-72
2023/02/17 07:32:34;;;;;;;22.75;14.57;;;4.00;99.90;;;;;;5068317;28;20039;-64
2023/02/17 07:35:01;;;;;;;28.35;16.42;;;4.00;99.90;;;;;;5060517;28;20071;-70
2023/02/17 07:37:28;;;;;;;27.42;16.05;;;4.00;99.90;;;;;;5067273;28;20067;-65
2023/02/17 07:39:56;;;;;;;26.17;16.85;;;4.00;99.90;;;;;;5065072;28;20048;-65
2023/02/17 07:42:23;;;;;;;30.33;18.35;;;4.10;99.90;;;;;;5063492;28;20059;-64
2023/02/17 07:44:50;;;;;;;28.77;16.48;;;4.10;99.90;;;;;;5051194;28;20496;-63
2023/02/17 07:47:17;;;;;;;27.30;17.20;;;4.10;99.90;;;;;;5067720;28;20044;-63
2023/02/17 07:49:44;;;;;;;21.92;14.80;;;4.20;99.90;;;;;;5062063;28;20171;-66
2023/02/17 07:52:11;;;;;;;27.15;17.60;;;4.20;99.90;;;;;;5056785;28;20040;-68
2023/02/17 07:54:38;;;;;;;25.48;16.02;;;4.20;99.90;;;;;;5052441;28;21670;-65
2023/02/17 07:57:05;;;;;;;26.90;17.88;;;4.20;99.90;;;;;;5064990;28;20052;-64
2023/02/17 07:59:32;;;;;;;29.40;16.58;;;4.20;99.90;;;;;;5053292;28;20047;-66
2023/02/17 08:01:58;;;;;;;25.92;17.17;;;4.30;99.90;;;;;;5061047;28;20064;-65
2023/02/17 08:04:26;;;;;;;27.27;15.50;;;4.30;99.90;;;;;;5020339;28;20139;-73
2023/02/17 08:06:53;;;;;;;35.70;19.02;;;4.30;99.90;;;;;;5067739;28;20171;-65
2023/02/17 08:14:50;;;;;;;27.35;17.63;;;4.30;99.90;;;;;;5061317;28;20040;-63
2023/02/17 08:17:17;;;;;;;28.52;17.20;;;4.30;99.90;;;;;;5064161;28;20045;-69
2023/02/17 08:19:44;;;;;;;25.58;16.63;;;4.30;99.90;;;;;;5063352;28;20048;-68
2023/02/17 08:22:16;;;;;;;34.95;18.75;;;4.40;99.90;;;;;;5059108;28;20109;-67
2023/02/17 08:24:43;;;;;;;30.70;18.35;;;4.40;99.90;;;;;;5061316;28;20051;-68
2023/02/17 08:27:10;;;;;;;29.35;16.55;;;4.40;99.90;;;;;;5062628;28;20487;-71
2023/02/17 08:29:37;;;;;;;33.80;19.65;;;4.40;99.90;;;;;;5067071;28;20071;-69
2023/02/17 08:32:03;;;;;;;36.78;21.35;;;4.40;99.90;;;;;;5060853;28;20049;-65
2023/02/17 08:34:33;;;;;;;28.40;18.75;;;4.50;99.90;;;;;;5062250;28;20135;-65
2023/02/17 08:37:02;;;;;;;38.60;22.20;;;4.50;99.90;;;;;;5065459;28;20080;-72
2023/02/17 08:39:29;;;;;;;38.00;19.48;;;4.50;99.90;;;;;;5061580;28;20285;-65
2023/02/17 08:41:56;;;;;;;35.65;22.58;;;4.60;99.90;;;;;;5069446;28;20041;-65
2023/02/17 08:44:23;;;;;;;40.72;24.08;;;4.60;99.90;;;;;;5057150;28;20045;-64
2023/02/17 08:46:51;;;;;;;31.67;20.15;;;4.70;99.90;;;;;;5062498;28;20044;-65
2023/02/17 08:49:21;;;;;;;30.92;20.17;;;4.70;99.90;;;;;;5062571;28;20575;-64
2023/02/17 08:51:49;;;;;;;45.58;22.17;;;4.70;99.90;;;;;;5067445;28;20055;-64
2023/02/17 08:54:17;;;;;;;40.65;22.00;;;4.70;99.90;;;;;;5064636;28;20059;-63
2023/02/17 08:56:44;;;;;;;40.50;22.50;;;4.70;99.90;;;;;;5067274;28;20124;-71
2023/02/17 08:59:13;;;;;;;39.97;22.70;;;4.70;99.90;;;;;;5063889;28;20060;-68
2023/02/17 09:01:41;;;;;;;42.67;23.88;;;4.70;99.90;;;;;;5067314;28;20114;-63
2023/02/17 09:04:10;;;;;;;49.78;25.55;;;4.70;99.90;;;;;;5065962;28;20075;-70
2023/02/17 09:06:41;;;;;;;47.33;26.25;;;4.70;99.90;;;;;;5067930;28;20413;-65
2023/02/17 09:09:10;;;;;;;36.97;21.95;;;4.70;99.90;;;;;;5063237;28;20077;-63
2023/02/17 09:11:37;;;;;;;41.92;24.17;;;4.70;99.90;;;;;;5065275;28;20093;-63
2023/02/17 09:14:05;;;;;;;45.15;26.63;;;4.70;99.90;;;;;;5062596;28;20135;-67
2023/02/17 09:16:32;;;;;;;40.72;24.38;;;4.80;99.90;;;;;;5066244;28;20497;-66
2023/02/17 09:18:59;;;;;;;50.80;28.80;;;4.80;99.90;;;;;;5066469;28;20044;-63
2023/02/17 09:21:26;;;;;;;48.50;26.38;;;4.90;99.90;;;;;;5063589;28;20048;-64
2023/02/17 09:23:53;;;;;;;46.28;26.65;;;4.90;99.90;;;;;;5064724;28;20422;-64
2023/02/17 09:26:20;;;;;;;51.20;27.10;;;5.00;99.90;;;;;;5049292;28;20452;-63
2023/02/17 09:28:48;;;;;;;47.40;27.77;;;5.00;99.90;;;;;;5064555;28;20044;-65
2023/02/17 09:31:24;;;;;;;45.75;28.30;;;5.10;99.90;;;;;;5062181;28;20216;-64
2023/02/17 09:33:51;;;;;;;51.42;28.38;;;5.20;99.90;;;;;;5064027;28;20061;-63
2023/02/17 09:36:25;;;;;;;46.83;29.75;;;5.20;99.90;;;;;;5067930;28;20040;-63
2023/02/17 09:38:52;;;;;;;55.22;31.48;;;5.20;99.90;;;;;;5066701;28;20152;-68
2023/02/17 09:41:28;;;;;;;54.78;31.90;;;5.20;99.90;;;;;;5053223;28;20649;-64
2023/02/17 09:43:55;;;;;;;54.65;32.30;;;5.30;99.90;;;;;;5065354;28;20072;-65
2023/02/17 09:46:34;;;;;;;44.47;29.73;;;5.30;99.90;;;;;;5061185;28;20700;-69
2023/02/17 09:49:13;;;;;;;45.40;29.67;;;5.40;99.90;;;;;;5063431;28;20441;-62
2023/02/17 09:51:46;;;;;;;57.42;31.65;;;5.50;99.90;;;;;;5064916;28;20410;-64
2023/02/17 09:54:35;;;;;;;48.00;29.83;;;5.60;99.90;;;;;;5067945;28;20048;-69
2023/02/17 09:57:06;;;;;;;47.80;29.25;;;5.60;99.90;;;;;;5066906;28;20106;-65
2023/02/17 09:59:40;;;;;;;50.13;32.08;;;5.60;99.90;;;;;;5065979;28;20131;-63
2023/02/17 10:02:33;;;;;;;51.40;29.33;;;5.60;99.90;;;;;;5057261;28;20056;-62
2023/02/17 10:05:06;;;;;;;61.50;31.35;;;5.60;99.90;;;;;;5066376;28;20052;-65
2023/02/17 10:07:38;;;;;;;54.72;32.75;;;5.50;99.90;;;;;;5063979;28;20796;-67
2023/02/17 10:10:19;;;;;;;51.55;32.08;;;5.60;99.90;;;;;;5062990;28;20147;-71
2023/02/17 10:12:52;;;;;;;61.03;32.88;;;5.50;99.90;;;;;;5065312;28;20068;-64
2023/02/17 10:15:30;;;;;;;48.10;29.92;;;5.70;99.90;;;;;;5065071;28;20429;-63
2023/02/17 10:18:17;;;;;;;49.50;31.63;;;5.60;99.90;;;;;;5058701;28;20049;-64
2023/02/17 10:20:56;;;;;;;54.38;31.17;;;5.70;99.90;;;;;;5064457;28;20049;-65
2023/02/17 10:23:26;;;;;;;51.45;30.70;;;5.70;99.90;;;;;;5062190;28;20075;-65
2023/02/17 10:26:29;;;;;;;48.15;30.70;;;5.80;99.90;;;;;;5062475;28;20175;-63
2023/02/17 10:29:04;;;;;;;44.58;29.02;;;5.80;99.90;;;;;;5062064;28;20140;-67
2023/02/17 10:31:45;;;;;;;46.88;28.75;;;5.80;99.90;;;;;;5064563;28;20674;-64
2023/02/17 10:34:15;;;;;;;46.72;27.90;;;5.80;99.90;;;;;;5061154;28;20949;-65
2023/02/17 10:36:55;;;;;;;51.30;26.67;;;5.80;99.90;;;;;;5061546;28;20143;-65
2023/02/17 10:39:47;;;;;;;46.00;25.65;;;5.80;99.90;;;;;;5066533;28;20044;-64
2023/02/17 10:42:36;;;;;;;45.70;25.25;;;5.80;99.90;;;;;;5061257;28;20045;-66
2023/02/17 10:45:04;;;;;;;51.78;27.75;;;5.80;99.90;;;;;;5063479;28;20128;-69
2023/02/17 10:47:35;;;;;;;43.90;26.70;;;5.80;99.90;;;;;;5064000;28;20067;-64
2023/02/17 10:50:04;;;;;;;44.80;25.52;;;5.70;99.90;;;;;;5058409;28;20059;-65
2023/02/17 10:52:40;;;;;;;49.40;25.55;;;5.70;99.90;;;;;;5065216;28;20041;-69
2023/02/17 10:55:28;;;;;;;43.30;24.60;;;5.60;99.90;;;;;;5063024;28;20054;-66
2023/02/17 10:58:20;;;;;;;60.45;30.77;;;5.50;99.90;;;;;;5062267;28;20060;-65
2023/02/17 11:00:53;;;;;;;55.20;27.27;;;5.40;99.90;;;;;;5063996;28;20051;-70
2023/02/17 11:03:23;;;;;;;58.60;29.00;;;5.40;99.90;;;;;;5064850;28;20102;-68
2023/02/17 11:06:01;;;;;;;57.80;31.13;;;5.30;99.90;;;;;;5063784;28;20059;-72
2023/02/17 11:08:47;;;;;;;56.53;29.65;;;5.30;99.90;;;;;;5062351;28;20049;-67
2023/02/17 11:11:21;;;;;;;59.15;29.27;;;5.30;99.90;;;;;;5060583;28;20067;-66
2023/02/17 11:14:12;;;;;;;54.53;28.88;;;5.30;99.90;;;;;;5064043;28;20045;-67
2023/02/17 11:16:51;;;;;;;60.55;30.00;;;5.30;99.90;;;;;;5061385;28;20044;-70
2023/02/17 11:19:23;;;;;;;64.30;33.00;;;5.30;99.90;;;;;;5058115;28;20037;-66
2023/02/17 11:21:55;;;;;;;58.42;32.00;;;5.30;99.90;;;;;;5064050;28;20044;-66
2023/02/17 11:24:22;;;;;;;61.47;32.00;;;5.30;99.90;;;;;;5048112;28;20473;-71
2023/02/17 11:27:00;;;;;;;62.42;32.13;;;5.30;99.90;;;;;;5065000;28;20608;-67
2023/02/17 11:29:27;;;;;;;65.63;34.10;;;5.20;99.90;;;;;;5064710;28;20144;-66
2023/02/17 11:32:00;;;;;;;60.50;33.45;;;5.20;99.90;;;;;;5061924;28;20110;-67
2023/02/17 11:34:31;;;;;;;67.22;36.85;;;5.20;99.90;;;;;;5063491;28;20683;-72
2023/02/17 11:37:18;;;;;;;63.90;35.92;;;5.20;99.90;;;;;;5063080;28;20347;-68
2023/02/17 11:39:52;;;;;;;69.43;34.92;;;5.20;99.90;;;;;;5059846;28;20053;-68
2023/02/17 11:42:25;;;;;;;70.93;36.50;;;5.20;99.90;;;;;;5057958;28;20047;-68
2023/02/17 11:45:10;;;;;;;71.88;40.20;;;5.20;99.90;;;;;;5059558;28;20479;-66
2023/02/17 11:47:48;;;;;;;70.35;35.80;;;5.20;99.90;;;;;;5060924;28;20057;-68
2023/02/17 11:50:24;;;;;;;68.07;35.67;;;5.20;99.90;;;;;;5061410;28;20040;-68
2023/02/17 11:53:24;;;;;;;71.10;35.88;;;5.20;99.90;;;;;;5061167;28;20139;-67
2023/02/17 11:56:12;;;;;;;79.00;41.80;;;5.20;99.90;;;;;;5063734;28;20159;-68
2023/02/17 11:59:05;;;;;;;82.55;39.95;;;5.20;99.90;;;;;;5060749;28;20071;-69
2023/02/17 12:02:01;;;;;;;67.43;39.05;;;5.20;99.90;;;;;;5060355;28;20040;-65
2023/02/17 12:04:30;;;;;;;68.53;38.97;;;5.20;99.90;;;;;;5058649;28;20056;-67
2023/02/17 12:07:25;;;;;;;82.88;42.58;;;5.20;99.90;;;;;;5063496;28;20045;-66
2023/02/17 12:10:15;;;;;;;70.07;38.78;;;5.20;99.90;;;;;;5042669;28;20052;-67
2023/02/17 12:13:02;;;;;;;81.13;42.22;;;5.20;99.90;;;;;;5061149;28;20080;-66
2023/02/17 12:15:43;;;;;;;73.60;41.28;;;5.20;99.90;;;;;;5051009;28;20227;-69
2023/02/17 12:18:28;;;;;;;72.88;41.10;;;5.20;99.90;;;;;;5059407;28;20076;-71
2023/02/17 12:21:20;;;;;;;79.55;38.13;;;5.20;99.90;;;;;;5055158;28;20046;-66
2023/02/17 12:24:00;;;;;;;65.75;36.22;;;5.20;99.90;;;;;;5045193;28;20059;-69
2023/02/17 12:26:34;;;;;;;73.03;40.05;;;5.20;99.90;;;;;;5060933;28;20128;-67
2023/02/17 12:29:08;;;;;;;73.65;37.70;;;5.10;99.90;;;;;;5069018;28;20041;-67
2023/02/17 12:31:59;;;;;;;62.63;35.83;;;5.10;99.90;;;;;;5068330;28;20558;-70
2023/02/17 12:34:38;;;;;;;64.75;34.05;;;5.10;99.90;;;;;;5063149;28;20068;-70
2023/02/17 12:37:20;;;;;;;58.20;33.22;;;5.10;99.90;;;;;;5067058;28;20131;-66
2023/02/17 12:39:53;;;;;;;57.85;31.55;;;5.10;99.90;;;;;;5067386;28;20135;-69
2023/02/17 12:42:29;;;;;;;56.72;30.88;;;5.00;99.90;;;;;;5064328;28;20709;-66
2023/02/17 12:45:02;;;;;;;45.65;28.17;;;5.00;99.90;;;;;;5065434;28;20052;-68
2023/02/17 12:47:44;;;;;;;49.08;27.70;;;5.00;99.90;;;;;;5066363;28;20048;-69
2023/02/17 12:50:30;;;;;;;50.95;25.83;;;5.00;99.90;;;;;;5067092;28;20052;-69
2023/02/17 12:53:01;;;;;;;44.47;25.70;;;4.90;99.90;;;;;;5063497;28;20516;-70
2023/02/17 12:55:47;;;;;;;41.25;25.63;;;4.90;99.90;;;;;;5062619;28;20408;-66
2023/02/17 12:58:20;;;;;;;43.83;25.02;;;4.90;99.90;;;;;;5056395;28;20049;-70
2023/02/17 13:01:12;;;;;;;35.35;21.38;;;4.90;99.90;;;;;;5051117;28;20051;-66
2023/02/17 13:03:39;;;;;;;32.95;19.75;;;4.90;99.90;;;;;;5041097;28;20045;-66
2023/02/17 13:06:33;;;;;;;31.40;17.55;;;4.90;99.90;;;;;;5048092;28;20137;-66